Time;durP1;ratioP1;P1;durP2;ratioP2;P2;SDS_P1;SDS_P2;PMS_P1;PMS_P2;Temp;Humidity;BMP_temperature;BMP_pressure;BME280_temperature;BME280_humidity;BME280_pressure;Samples;Min_cycle;Max_cycle;Signal;HPM_P1;HPM_P2
2022/08/10 00:00:19;;;;;;;;;7.00;7.00;;;;;21.18;56.60;102056.44;110426;1262;21944;-51
2022/08/10 00:02:17;;;;;;;;;8.00;7.33;;;;;21.17;56.81;102054.72;111419;1258;19517;-55
2022/08/10 00:04:45;;;;;;;;;9.67;9.67;;;;;21.13;56.94;102060.96;110438;1260;18480;-56
2022/08/10 00:07:12;;;;;;;;;10.00;10.00;;;;;21.10;56.95;102062.52;110478;1260;19179;-53
2022/08/10 00:09:40;;;;;;;;;13.00;11.00;;;;;21.04;57.06;102065.23;110742;1259;19524;-55
2022/08/10 00:12:07;;;;;;;;;9.67;9.00;;;;;20.94;57.12;102064.73;110710;1258;22493;-53
2022/08/10 00:14:34;;;;;;;;;7.00;7.00;;;;;20.85;57.65;102069.29;110482;1261;18930;-54
2022/08/10 00:17:02;;;;;;;;;11.00;9.00;;;;;20.80;57.64;102069.16;110527;1260;19580;-52
2022/08/10 00:19:29;;;;;;;;;10.67;8.33;;;;;20.74;57.61;102072.61;110750;1259;18408;-52
2022/08/10 00:21:57;;;;;;;;;10.00;10.00;;;;;20.64;57.81;102071.06;110724;1258;19697;-52
2022/08/10 00:24:24;;;;;;;;;9.00;9.00;;;;;20.60;57.64;102073.45;110438;1261;19567;-53
2022/08/10 00:26:51;;;;;;;;;9.00;9.00;;;;;20.59;57.98;102072.75;110622;1258;18673;-57
2022/08/10 00:29:19;;;;;;;;;9.00;8.50;;;;;20.59;57.67;102068.84;110708;1258;18741;-52
2022/08/10 00:31:46;;;;;;;;;10.00;10.00;;;;;20.56;57.85;102071.10;110646;1258;19550;-54
2022/08/10 00:34:14;;;;;;;;;9.50;9.00;;;;;20.54;57.88;102066.93;110750;1258;18562;-54
2022/08/10 00:36:41;;;;;;;;;8.00;8.00;;;;;20.45;57.83;102064.40;110460;1260;21370;-56
2022/08/10 00:39:08;;;;;;;;;8.33;8.00;;;;;20.43;57.88;102063.91;110475;1260;19683;-55
2022/08/10 00:41:36;;;;;;;;;10.67;9.00;;;;;20.41;58.20;102061.91;110749;1258;18441;-49
2022/08/10 00:44:03;;;;;;;;;9.00;9.00;;;;;20.43;58.09;102063.02;110494;1261;19383;-53
2022/08/10 00:46:30;;;;;;;;;11.00;10.00;;;;;20.36;57.92;102064.91;110736;1258;19650;-54
2022/08/10 00:48:58;;;;;;;;;9.00;8.00;;;;;20.33;58.39;102068.30;110736;1258;18453;-54
2022/08/10 00:51:25;;;;;;;;;12.00;9.00;;;;;20.31;58.33;102069.19;110737;1258;18793;-52
2022/08/10 00:53:52;;;;;;;;;10.67;8.67;;;;;20.31;58.29;102072.59;110639;1258;19422;-54
2022/08/10 00:56:20;;;;;;;;;12.33;9.00;;;;;20.36;58.25;102071.29;110777;1258;18814;-53
2022/08/10 00:58:48;;;;;;;;;10.33;9.67;;;;;20.36;58.29;102076.94;110413;1260;19273;-51
2022/08/10 01:01:15;;;;;;;;;8.00;8.00;;;;;20.31;58.49;102078.79;110572;1258;19698;-51
2022/08/10 01:03:43;;;;;;;;;10.00;10.00;;;;;20.29;58.38;102074.09;110421;1260;18718;-51
2022/08/10 01:06:10;;;;;;;;;9.00;8.00;;;;;20.27;58.55;102075.17;110666;1258;22063;-52
2022/08/10 01:08:37;;;;;;;;;10.00;9.67;;;;;20.25;58.54;102076.23;110705;1257;19512;-51
2022/08/10 01:11:05;;;;;;;;;12.00;10.00;;;;;20.25;58.88;102074.09;110458;1260;19279;-52
2022/08/10 01:13:32;;;;;;;;;11.33;10.00;;;;;20.21;58.70;102073.01;110445;1261;18993;-53
2022/08/10 01:16:00;;;;;;;;;10.00;9.00;;;;;20.19;59.08;102078.27;110693;1258;19506;-50
2022/08/10 01:18:27;;;;;;;;;11.33;10.00;;;;;20.24;58.92;102077.04;110680;1258;18849;-50
2022/08/10 01:20:55;;;;;;;;;13.00;9.67;;;;;20.23;58.58;102086.23;110446;1260;18758;-53
2022/08/10 01:23:22;;;;;;;;;12.00;12.00;;;;;20.23;58.55;102080.26;110775;1258;23460;-55
2022/08/10 01:25:50;;;;;;;;;10.00;9.00;;;;;20.18;58.70;102081.81;110606;1257;18758;-54
2022/08/10 01:28:18;;;;;;;;;12.67;10.67;;;;;20.13;58.85;102086.88;110712;1258;22216;-55
2022/08/10 01:30:45;;;;;;;;;10.00;9.00;;;;;20.14;58.76;102085.65;110756;1258;19501;-56
2022/08/10 01:33:13;;;;;;;;;11.33;11.33;;;;;20.12;58.87;102089.25;110723;1259;18708;-52
2022/08/10 01:35:40;;;;;;;;;14.67;13.00;;;;;20.11;58.72;102089.16;110472;1260;18776;-54
2022/08/10 01:38:08;;;;;;;;;9.67;9.67;;;;;20.12;58.96;102088.22;110779;1258;19501;-52
2022/08/10 01:40:35;;;;;;;;;10.67;9.33;;;;;20.08;58.81;102089.67;110694;1258;18877;-53
2022/08/10 01:43:03;;;;;;;;;12.00;10.00;;;;;20.07;59.01;102085.54;110735;1258;21428;-54
2022/08/10 01:45:30;;;;;;;;;12.33;12.00;;;;;20.05;58.84;102081.98;110701;1258;20340;-52
2022/08/10 01:50:43;;;;;;;;;10.33;9.00;;;;;19.93;59.23;102083.39;110780;1258;18839;-55
2022/08/10 01:53:10;;;;;;;;;11.67;9.00;;;;;19.90;59.42;102079.51;110488;1260;19553;-53
2022/08/10 01:55:37;;;;;;;;;10.67;10.33;;;;;19.86;59.47;102088.01;110769;1258;23112;-53
2022/08/10 01:58:05;;;;;;;;;10.00;10.00;;;;;19.84;59.24;102086.05;110721;1258;18774;-54
2022/08/10 02:00:32;;;;;;;;;11.00;10.00;;;;;19.84;59.23;102088.20;110428;1260;19538;-53
2022/08/10 02:03:00;;;;;;;;;15.67;13.00;;;;;19.84;59.42;102087.14;110442;1260;22806;-54
2022/08/10 02:05:28;;;;;;;;;10.50;10.00;;;;;19.80;59.43;102085.23;110502;1260;18883;-55
2022/08/10 02:07:55;;;;;;;;;13.00;10.00;;;;;19.79;59.51;102080.15;110498;1260;22701;-53
2022/08/10 02:10:23;;;;;;;;;15.00;10.67;;;;;19.80;59.37;102081.25;110696;1258;27263;-52
2022/08/10 02:12:55;;;;;;;;;12.00;9.00;;;;;19.83;59.35;102075.40;110685;1258;22679;-53
2022/08/10 02:15:22;;;;;;;;;18.33;13.00;;;;;19.74;59.49;102075.70;110496;1260;19783;-54
2022/08/10 02:17:50;;;;;;;;;25.50;23.00;;;;;19.70;59.69;102070.02;110472;1260;18775;-53
2022/08/10 02:20:18;;;;;;;;;28.00;26.00;;;;;19.70;59.79;102068.03;110755;1258;18802;-56
2022/08/10 02:22:45;;;;;;;;;21.00;19.67;;;;;19.67;59.76;102069.24;110365;1260;19483;-55
2022/08/10 02:25:13;;;;;;;;;16.50;16.00;;;;;19.69;60.00;102069.97;110454;1261;18756;-53
2022/08/10 02:27:40;;;;;;;;;16.00;15.50;;;;;19.74;60.20;102065.85;110377;1260;18778;-53
2022/08/10 02:30:07;;;;;;;;;18.00;16.00;;;;;19.75;60.23;102068.11;112162;1260;19773;-51
2022/08/10 02:32:35;;;;;;;;;13.00;13.00;;;;;19.78;60.02;102064.95;112362;1258;20153;-51
2022/08/10 02:35:02;;;;;;;;;13.00;13.00;;;;;19.95;59.78;102068.46;112194;1260;20134;-54
2022/08/10 02:37:30;;;;;;;;;11.33;11.00;;;;;20.15;59.33;102067.96;112204;1260;19565;-53
2022/08/10 02:39:57;;;;;;;;;12.00;12.00;;;;;20.22;58.96;102070.16;110723;1258;18996;-52
2022/08/10 02:42:24;;;;;;;;;15.00;13.00;;;;;20.32;58.98;102067.33;110535;1258;18980;-54
2022/08/10 02:44:52;;;;;;;;;12.00;10.67;;;;;20.32;58.85;102067.49;110452;1259;19758;-52
2022/08/10 02:47:20;;;;;;;;;12.67;12.00;;;;;20.41;58.85;102069.89;110663;1258;20110;-56
2022/08/10 02:49:47;;;;;;;;;9.00;9.00;;;;;20.44;58.55;102068.12;110739;1258;18803;-55
2022/08/10 02:52:15;;;;;;;;;12.67;12.00;;;;;20.43;58.67;102067.69;110712;1258;20068;-54
2022/08/10 02:54:43;;;;;;;;;12.00;10.00;;;;;20.32;58.60;102075.06;110476;1260;18512;-55
2022/08/10 02:57:11;;;;;;;;;12.00;10.00;;;;;20.25;59.04;102076.31;110696;1258;18855;-52
2022/08/10 02:59:38;;;;;;;;;13.00;12.00;;;;;20.20;59.44;102074.70;110764;1258;19556;-55
2022/08/10 03:02:05;;;;;;;;;10.00;10.00;;;;;20.25;59.16;102069.73;110482;1261;18784;-52
2022/08/10 03:04:33;;;;;;;;;10.00;10.00;;;;;20.15;59.56;102073.38;110719;1258;18931;-53
2022/08/10 03:07:00;;;;;;;;;11.00;11.00;;;;;20.09;59.69;102072.67;110456;1260;19767;-53
2022/08/10 03:09:27;;;;;;;;;13.00;11.67;;;;;20.09;59.77;102075.23;110747;1258;22233;-53
2022/08/10 03:11:55;;;;;;;;;24.33;20.00;;;;;20.03;59.96;102071.08;110734;1258;18805;-55
2022/08/10 03:14:22;;;;;;;;;16.00;14.33;;;;;20.03;59.95;102071.61;110799;1258;19560;-53
2022/08/10 03:16:50;;;;;;;;;19.33;16.33;;;;;20.04;60.10;102076.62;110458;1260;22983;-52
2022/08/10 03:19:19;;;;;;;;;17.00;15.00;;;;;20.01;60.20;102080.31;110691;1258;18779;-56
2022/08/10 03:21:46;;;;;;;;;17.67;16.00;;;;;20.03;60.38;102079.54;110709;1258;19456;-54
2022/08/10 03:24:13;;;;;;;;;14.00;13.33;;;;;20.05;60.20;102085.91;110723;1258;18808;-53
2022/08/10 03:26:41;;;;;;;;;13.67;13.67;;;;;19.99;60.29;102086.22;110448;1261;22229;-53
2022/08/10 03:29:08;;;;;;;;;14.00;12.00;;;;;19.99;59.97;102089.70;110487;1260;19710;-54
2022/08/10 03:31:37;;;;;;;;;15.67;14.33;;;;;20.03;59.97;102094.45;110733;1258;18818;-54
2022/08/10 03:34:04;;;;;;;;;16.00;16.00;;;;;19.95;59.97;102098.23;110728;1258;18833;-51
2022/08/10 03:36:31;;;;;;;;;20.00;17.50;;;;;19.98;59.89;102101.91;110764;1258;20035;-56
2022/08/10 03:38:59;;;;;;;;;17.00;16.50;;;;;19.96;60.01;102102.86;110462;1260;18690;-54
2022/08/10 03:41:26;;;;;;;;;20.33;17.00;;;;;19.91;60.01;102099.52;110757;1258;22094;-55
2022/08/10 03:43:54;;;;;;;;;22.33;17.33;;;;;19.85;59.83;102101.66;110756;1258;19465;-52
2022/08/10 03:46:21;;;;;;;;;22.67;20.00;;;;;19.80;60.29;102100.70;110742;1258;18807;-55
2022/08/10 03:48:48;;;;;;;;;26.67;20.00;;;;;19.79;60.10;102104.20;110774;1258;18666;-55
2022/08/10 03:51:16;;;;;;;;;16.67;16.67;;;;;19.76;60.47;102108.88;110483;1260;19479;-52
2022/08/10 03:53:43;;;;;;;;;16.00;15.00;;;;;19.73;60.29;102107.14;110742;1259;22339;-53
2022/08/10 03:56:10;;;;;;;;;19.00;16.00;;;;;19.68;60.43;102110.88;110759;1258;19010;-54
2022/08/10 03:58:38;;;;;;;;;15.00;15.00;;;;;19.70;60.37;102113.45;110663;1258;19586;-52
2022/08/10 04:01:05;;;;;;;;;18.00;15.33;;;;;19.72;60.38;102114.25;110659;1258;18792;-53
2022/08/10 04:03:33;;;;;;;;;15.00;13.00;;;;;19.78;60.22;102111.91;110338;1260;18809;-54
2022/08/10 04:06:00;;;;;;;;;16.00;15.00;;;;;19.79;60.21;102110.60;110612;1258;22675;-53
2022/08/10 04:08:27;;;;;;;;;18.00;17.00;;;;;19.81;60.39;102110.73;110799;1258;18723;-54
2022/08/10 04:10:55;;;;;;;;;21.67;20.00;;;;;19.97;60.19;102107.71;110769;1258;18944;-54
2022/08/10 04:13:22;;;;;;;;;21.00;19.00;;;;;20.04;59.77;102109.20;110761;1259;19851;-54
2022/08/10 04:15:50;;;;;;;;;31.00;26.67;;;;;19.99;60.23;102108.73;110721;1258;20962;-54
2022/08/10 04:18:17;;;;;;;;;27.33;20.67;;;;;20.00;60.35;102113.34;110417;1260;18867;-54
2022/08/10 04:20:45;;;;;;;;;20.50;19.00;;;;;19.99;60.26;102115.28;110435;1260;21702;-54
2022/08/10 04:23:12;;;;;;;;;17.00;17.00;;;;;19.95;60.40;102114.75;110792;1258;18757;-53
2022/08/10 04:25:39;;;;;;;;;13.00;13.00;;;;;19.91;60.76;102114.20;109523;1258;1444778;-55
2022/08/10 04:28:07;;;;;;;;;14.00;12.00;;;;;19.87;61.01;102111.81;110408;1260;19485;-55
2022/08/10 04:30:34;;;;;;;;;15.00;15.00;;;;;20.04;60.69;102113.38;110219;1260;22035;-52
2022/08/10 04:33:02;;;;;;;;;16.67;15.00;;;;;20.08;60.58;102121.23;110704;1258;18824;-54
2022/08/10 04:35:29;;;;;;;;;16.50;16.00;;;;;20.03;60.98;102124.36;110319;1259;19433;-54
2022/08/10 04:37:57;;;;;;;;;16.50;13.00;;;;;20.09;60.86;102120.95;110750;1258;18720;-54
2022/08/10 04:40:24;;;;;;;;;17.33;16.00;;;;;20.03;61.19;102123.15;110703;1258;18811;-55
2022/08/10 04:42:51;;;;;;;;;26.00;23.00;;;;;19.95;61.62;102117.83;110712;1258;19932;-54
2022/08/10 04:45:19;;;;;;;;;20.00;17.00;;;;;19.95;61.54;102120.55;110709;1258;22817;-54
2022/08/10 04:47:46;;;;;;;;;16.50;16.00;;;;;20.05;61.58;102118.97;110745;1258;18763;-54
2022/08/10 04:50:14;;;;;;;;;19.50;16.00;;;;;20.18;61.24;102118.30;110492;1260;19490;-55
2022/08/10 04:52:41;;;;;;;;;16.00;13.67;;;;;20.50;60.56;102122.32;110667;1258;19219;-56
2022/08/10 04:55:08;;;;;;;;;14.33;13.00;;;;;20.94;59.21;102121.79;110551;1258;22216;-56
2022/08/10 04:57:36;;;;;;;;;16.33;13.00;;;;;21.33;58.21;102121.73;110290;1260;19469;-57
2022/08/10 05:00:03;;;;;;;;;13.00;12.67;;;;;21.63;57.72;102122.84;110608;1259;18842;-57
2022/08/10 05:02:31;;;;;;;;;16.00;13.67;;;;;21.85;56.93;102122.84;110446;1260;18693;-54
2022/08/10 05:04:58;;;;;;;;;13.33;13.33;;;;;22.02;56.27;102120.98;110228;1260;19664;-53
2022/08/10 05:07:26;;;;;;;;;14.33;13.00;;;;;22.16;55.83;102117.45;110437;1260;18850;-53
2022/08/10 05:09:54;;;;;;;;;14.33;11.00;;;;;22.25;55.56;102119.98;110386;1261;19007;-54
2022/08/10 05:12:21;;;;;;;;;10.67;9.33;;;;;22.32;55.34;102124.05;110686;1258;19546;-55
2022/08/10 05:14:50;;;;;;;;;11.00;10.00;;;;;22.39;55.05;102126.79;110476;1260;18713;-55
2022/08/10 05:17:18;;;;;;;;;13.00;11.00;;;;;22.43;54.93;102125.27;110268;1261;22261;-53
2022/08/10 05:19:45;;;;;;;;;13.00;11.00;;;;;22.48;54.73;102127.54;110615;1258;21055;-49
2022/08/10 05:22:12;;;;;;;;;11.00;10.00;;;;;22.55;54.52;102129.17;110306;1260;18746;-51
2022/08/10 05:24:40;;;;;;;;;11.00;11.00;;;;;22.60;54.52;102132.34;110592;1259;22686;-50
2022/08/10 05:27:08;;;;;;;;;12.00;11.00;;;;;22.67;54.63;102133.77;110508;1258;19493;-54
2022/08/10 05:29:35;;;;;;;;;14.00;11.00;;;;;22.75;54.77;102131.32;110299;1260;22971;-49
2022/08/10 05:32:03;;;;;;;;;15.00;13.67;;;;;22.78;54.70;102135.64;110433;1260;18841;-50
2022/08/10 05:34:30;;;;;;;;;14.33;13.33;;;;;22.82;54.87;102134.23;110505;1259;21178;-49
2022/08/10 05:36:58;;;;;;;;;13.67;11.67;;;;;22.90;54.89;102127.10;110404;1258;18807;-52
2022/08/10 05:39:25;;;;;;;;;14.00;14.00;;;;;22.94;54.72;102124.50;110354;1260;20122;-49
2022/08/10 05:41:52;;;;;;;;;11.00;11.00;;;;;22.94;54.71;102123.40;110194;1261;19764;-49
2022/08/10 05:44:20;;;;;;;;;12.67;10.67;;;;;22.94;54.50;102126.46;110477;1258;18778;-49
2022/08/10 05:46:47;;;;;;;;;12.00;11.00;;;;;22.96;54.27;102123.89;110515;1258;18976;-50
2022/08/10 05:49:14;;;;;;;;;12.00;12.00;;;;;22.98;54.13;102126.77;110545;1259;19370;-51
2022/08/10 05:51:46;;;;;;;;;13.50;12.50;;;;;23.01;53.93;102123.27;110264;1261;18998;-53
2022/08/10 05:54:17;;;;;;;;;13.00;11.00;;;;;23.04;53.84;102125.86;110345;1260;19313;-51
2022/08/10 05:56:44;;;;;;;;;27.50;24.00;;;;;23.06;53.71;102128.30;110671;1258;19648;-50
2022/08/10 05:59:11;;;;;;;;;18.00;16.00;;;;;22.91;53.89;102127.89;110722;1258;18735;-52
2022/08/10 06:01:39;;;;;;;;;19.33;18.00;;;;;22.76;54.19;102125.82;110660;1258;20518;-50
2022/08/10 06:04:06;;;;;;;;;23.00;20.00;;;;;22.42;55.17;102130.50;110693;1259;19526;-52
2022/08/10 06:06:34;;;;;;;;;18.00;16.00;;;;;22.25;55.55;102132.06;110298;1260;18745;-50
2022/08/10 06:09:01;;;;;;;;;18.00;15.67;;;;;22.12;55.96;102132.98;111684;1258;18830;-50
2022/08/10 06:11:29;;;;;;;;;17.00;15.33;;;;;22.19;56.06;102135.20;110704;1258;19483;-51
2022/08/10 06:16:41;;;;;;;;;15.00;15.00;;;;;22.48;55.36;102140.14;110608;1259;18807;-48
2022/08/10 06:19:08;;;;;;;;;18.67;16.00;;;;;22.34;55.85;102139.82;110428;1258;20097;-52
2022/08/10 06:21:36;;;;;;;;;15.00;14.00;;;;;22.31;55.94;102145.79;110595;1259;18751;-51
2022/08/10 06:24:03;;;;;;;;;14.67;14.00;;;;;22.27;56.01;102144.79;110584;1258;19495;-51
2022/08/10 06:26:30;;;;;;;;;14.33;14.00;;;;;22.11;56.15;102142.61;110775;1258;19623;-51
2022/08/10 06:28:58;;;;;;;;;17.67;14.33;;;;;22.21;56.26;102147.32;110436;1260;19015;-51
2022/08/10 06:31:25;;;;;;;;;13.00;13.00;;;;;22.16;56.16;102147.41;110657;1258;22187;-53
2022/08/10 06:33:53;;;;;;;;;16.00;15.33;;;;;22.29;55.99;102147.85;110681;1258;19474;-48
2022/08/10 06:36:20;;;;;;;;;14.50;13.00;;;;;22.27;55.80;102148.81;110462;1260;18751;-51
2022/08/10 06:38:47;;;;;;;;;14.00;13.33;;;;;22.19;55.88;102144.10;110731;1258;18752;-51
2022/08/10 06:41:15;;;;;;;;;18.00;17.00;;;;;22.24;56.26;102138.16;110429;1260;19511;-51
2022/08/10 06:43:42;;;;;;;;;16.00;14.00;;;;;22.32;56.30;102133.52;110645;1258;19004;-50
2022/08/10 06:46:09;;;;;;;;;14.00;13.00;;;;;22.44;56.01;102132.30;110689;1258;20443;-52
2022/08/10 06:48:37;;;;;;;;;16.00;14.00;;;;;22.60;55.48;102134.80;110729;1258;19521;-51
2022/08/10 06:51:05;;;;;;;;;18.00;16.00;;;;;22.54;55.46;102130.40;110720;1258;18804;-50
2022/08/10 06:53:32;;;;;;;;;18.33;15.00;;;;;22.66;55.12;102132.67;110763;1258;19505;-51
2022/08/10 06:55:59;;;;;;;;;14.00;13.33;;;;;22.56;55.26;102132.39;110450;1261;20152;-51
2022/08/10 06:58:27;;;;;;;;;18.33;16.00;;;;;22.53;55.34;102137.26;110666;1258;18775;-50
2022/08/10 07:00:54;;;;;;;;;15.00;14.00;;;;;22.31;55.75;102137.79;110687;1258;18783;-52
2022/08/10 07:03:22;;;;;;;;;15.00;13.67;;;;;22.32;55.91;102133.70;110726;1258;22064;-51
2022/08/10 07:05:50;;;;;;;;;15.00;14.67;;;;;22.64;55.31;102133.17;110391;1261;18800;-51
2022/08/10 07:08:17;;;;;;;;;14.00;12.00;;;;;22.56;55.36;102129.42;110411;1261;18886;-51
2022/08/10 07:10:45;;;;;;;;;11.00;10.33;;;;;22.82;54.88;102133.67;110660;1258;21868;-53
2022/08/10 07:13:12;;;;;;;;;12.50;12.50;;;;;22.93;54.86;102132.44;110536;1258;18746;-53
2022/08/10 07:15:40;;;;;;;;;16.67;16.00;;;;;23.00;54.64;102128.98;110492;1258;18834;-53
2022/08/10 07:18:07;;;;;;;;;14.00;12.33;;;;;23.22;54.47;102135.46;110675;1258;22893;-53
2022/08/10 07:20:34;;;;;;;;;14.50;13.50;;;;;23.41;53.85;102139.23;110665;1258;18681;-51
2022/08/10 07:23:02;;;;;;;;;15.67;12.00;;;;;23.33;54.00;102144.14;110616;1258;24186;-49
2022/08/10 07:25:29;;;;;;;;;15.33;12.00;;;;;23.17;54.29;102141.59;110686;1258;20176;-52
2022/08/10 07:27:56;;;;;;;;;14.00;14.00;;;;;23.28;53.98;102147.21;110757;1258;18667;-51
2022/08/10 07:30:27;;;;;;;;;13.33;12.67;;;;;23.41;53.78;102146.71;110580;1258;18674;-52
2022/08/10 07:32:54;;;;;;;;;8.67;8.00;;;;;23.51;53.38;102147.30;110433;1260;19782;-52
2022/08/10 07:35:21;;;;;;;;;11.00;11.00;;;;;23.36;53.31;102143.23;110363;1260;19043;-50
2022/08/10 07:37:49;;;;;;;;;11.00;10.00;;;;;23.34;53.51;102145.69;110664;1258;18930;-50
2022/08/10 07:40:16;;;;;;;;;10.33;10.33;;;;;23.55;53.07;102145.25;110601;1258;19537;-50
2022/08/10 07:42:44;;;;;;;;;8.00;8.00;;;;;23.73;52.53;102146.16;110512;1258;18874;-50
2022/08/10 07:45:11;;;;;;;;;9.00;8.00;;;;;23.88;52.04;102144.73;111823;1258;18709;-50
2022/08/10 07:47:39;;;;;;;;;11.00;11.00;;;;;23.99;51.87;102143.32;110391;1260;19539;-49
2022/08/10 07:50:06;;;;;;;;;10.00;10.00;;;;;23.95;51.73;102147.02;110391;1260;18552;-52
2022/08/10 07:52:33;;;;;;;;;8.00;7.00;;;;;24.00;51.57;102143.05;110677;1258;18829;-51
2022/08/10 07:55:01;;;;;;;;;10.00;8.00;;;;;24.02;51.15;102145.38;110605;1259;19542;-52
2022/08/10 07:57:28;;;;;;;;;7.67;7.67;;;;;24.20;51.00;102141.04;110658;1258;18627;-52
2022/08/10 07:59:56;;;;;;;;;10.33;9.33;;;;;24.27;50.52;102140.70;110539;1258;18718;-53
2022/08/10 08:02:23;;;;;;;;;6.33;6.33;;;;;24.31;50.17;102142.89;110762;1258;20190;-48
2022/08/10 08:04:51;;;;;;;;;8.00;8.00;;;;;24.38;49.55;102147.02;110542;1258;24280;-50
2022/08/10 08:07:18;;;;;;;;;8.67;8.67;;;;;24.20;48.93;102142.23;110664;1258;18764;-52
2022/08/10 08:09:46;;;;;;;;;10.00;10.00;;;;;24.34;48.71;102142.84;110605;1259;19508;-50
2022/08/10 08:12:13;;;;;;;;;7.00;7.00;;;;;24.50;48.50;102142.77;110576;1258;23849;-50
2022/08/10 08:14:40;;;;;;;;;7.67;7.33;;;;;24.58;48.72;102143.32;110612;1258;18748;-50
2022/08/10 08:17:08;;;;;;;;;7.33;6.67;;;;;24.65;48.48;102141.31;110573;1260;19934;-50
2022/08/10 08:19:35;;;;;;;;;7.00;6.00;;;;;24.71;48.24;102138.02;110274;1260;18852;-49
2022/08/10 08:22:03;;;;;;;;;7.50;7.00;;;;;24.74;48.21;102142.49;110325;1260;18925;-52
2022/08/10 08:24:30;;;;;;;;;10.33;10.00;;;;;24.72;48.17;102139.81;110697;1258;19656;-50
2022/08/10 08:26:57;;;;;;;;;7.50;6.50;;;;;24.69;48.23;102139.33;110743;1258;18464;-51
2022/08/10 08:29:25;;;;;;;;;8.00;7.00;;;;;24.46;47.77;102131.88;110471;1260;19256;-50
2022/08/10 08:31:53;;;;;;;;;7.00;7.00;;;;;24.37;47.60;102133.85;110705;1258;19606;-50
2022/08/10 08:34:20;;;;;;;;;7.00;6.33;;;;;24.40;47.39;102130.89;110739;1258;18420;-52
2022/08/10 08:36:48;;;;;;;;;8.00;6.67;;;;;24.24;47.17;102129.67;110412;1260;19383;-52
2022/08/10 08:39:16;;;;;;;;;7.67;7.00;;;;;24.37;46.93;102126.34;110425;1260;19474;-50
2022/08/10 08:41:44;;;;;;;;;10.00;7.00;;;;;24.42;46.59;102127.39;110469;1261;21124;-51
2022/08/10 08:44:11;;;;;;;;;7.00;7.00;;;;;24.30;46.87;102123.27;110506;1260;18937;-52
2022/08/10 08:46:39;;;;;;;;;7.67;7.00;;;;;24.42;46.95;102122.63;110750;1258;19657;-49
2022/08/10 08:49:06;;;;;;;;;7.00;7.00;;;;;24.61;47.06;102122.86;110641;1259;18587;-51
2022/08/10 08:51:34;;;;;;;;;7.00;7.00;;;;;24.77;47.65;102120.41;110417;1260;18864;-52
2022/08/10 08:54:02;;;;;;;;;8.00;7.00;;;;;24.82;47.61;102124.61;110490;1260;19480;-51
2022/08/10 08:56:29;;;;;;;;;6.00;6.00;;;;;24.67;47.57;102125.30;110466;1260;18443;-51
2022/08/10 08:58:56;;;;;;;;;6.00;6.00;;;;;24.53;47.87;102124.88;110643;1258;19149;-47
2022/08/10 09:01:24;;;;;;;;;6.67;6.33;;;;;24.42;47.78;102127.05;110604;1258;20797;-51
2022/08/10 09:03:51;;;;;;;;;6.00;6.00;;;;;24.39;47.70;102118.93;110369;1260;18467;-48
2022/08/10 09:06:19;;;;;;;;;6.00;6.00;;;;;24.55;47.35;102126.45;110443;1261;18838;-51
2022/08/10 09:08:46;;;;;;;;;7.67;7.00;;;;;24.68;46.96;102117.98;110610;1258;19614;-51
2022/08/10 09:11:14;;;;;;;;;6.67;6.00;;;;;24.73;46.47;102116.48;110455;1260;20927;-50
2022/08/10 09:13:41;;;;;;;;;7.00;7.00;;;;;24.66;46.19;102118.94;110377;1261;18817;-53
2022/08/10 09:16:08;;;;;;;;;6.00;6.00;;;;;24.46;46.38;102118.23;110520;1258;19560;-49
2022/08/10 09:18:36;;;;;;;;;6.00;4.00;;;;;24.26;46.28;102114.30;110575;1258;18598;-50
2022/08/10 09:21:03;;;;;;;;;4.00;4.00;;;;;24.16;45.68;102108.48;110511;1258;18938;-50
2022/08/10 09:23:31;;;;;;;;;6.00;6.00;;;;;24.26;45.59;102106.23;110517;1260;21477;-53
2022/08/10 09:25:58;;;;;;;;;5.00;5.00;;;;;24.31;45.13;102112.48;110736;1258;18612;-51
2022/08/10 09:28:25;;;;;;;;;5.33;5.33;;;;;24.15;44.82;102114.23;110661;1258;19037;-51
2022/08/10 09:30:53;;;;;;;;;5.00;5.00;;;;;24.09;44.08;102113.03;110695;1258;19438;-50
2022/08/10 09:33:20;;;;;;;;;5.00;5.00;;;;;24.19;43.42;102109.52;110568;1258;20848;-50
2022/08/10 09:35:47;;;;;;;;;5.00;5.00;;;;;24.25;43.35;102110.42;110681;1258;18846;-50
2022/08/10 09:38:15;;;;;;;;;3.67;3.67;;;;;24.26;43.25;102107.33;110440;1260;19752;-49
2022/08/10 09:40:42;;;;;;;;;5.33;5.33;;;;;24.48;43.29;102103.14;110715;1258;18665;-54
2022/08/10 09:43:09;;;;;;;;;7.00;6.00;;;;;24.36;42.86;102102.27;110709;1258;18737;-50
2022/08/10 09:45:37;;;;;;;;;5.33;4.33;;;;;24.38;42.81;102101.11;110757;1258;19512;-52
2022/08/10 09:48:04;;;;;;;;;4.00;4.00;;;;;24.51;43.01;102094.10;110429;1260;20695;-52
2022/08/10 09:50:32;;;;;;;;;3.00;3.00;;;;;24.47;43.31;102096.74;110757;1258;18880;-50
2022/08/10 09:52:59;;;;;;;;;6.00;6.00;;;;;24.39;42.90;102091.66;110696;1258;19542;-50
2022/08/10 09:55:26;;;;;;;;;3.67;3.67;;;;;24.31;42.63;102090.81;110651;1258;18459;-51
2022/08/10 09:57:54;;;;;;;;;3.00;3.00;;;;;24.24;42.99;102086.52;110605;1258;22999;-51
2022/08/10 10:00:21;;;;;;;;;6.00;5.00;;;;;24.12;43.00;102084.09;110608;1258;19540;-52
2022/08/10 10:02:50;;;;;;;;;6.00;5.00;;;;;23.99;43.16;102079.64;110621;1258;18594;-52
2022/08/10 10:05:18;;;;;;;;;6.33;6.33;;;;;23.96;43.57;102074.14;110688;1258;18913;-52
2022/08/10 10:07:45;;;;;;;;;5.00;5.00;;;;;24.11;44.04;102070.98;110361;1260;19867;-50
2022/08/10 10:10:13;;;;;;;;;5.67;5.00;;;;;24.35;44.03;102074.67;110622;1258;18729;-51
2022/08/10 10:12:40;;;;;;;;;6.00;5.00;;;;;24.30;44.22;102070.81;110364;1261;22945;-50
2022/08/10 10:15:20;;;;;;;;;8.00;7.00;;;;;24.32;44.17;102073.54;110342;1260;21943;-51
2022/08/10 10:17:47;;;;;;;;;22.00;21.00;;;;;24.22;44.40;102071.11;110362;1261;18637;-49
2022/08/10 10:20:15;;;;;;;;;17.67;17.33;;;;;24.11;44.72;102066.08;110476;1260;18844;-52
2022/08/10 10:22:43;;;;;;;;;18.00;17.00;;;;;24.04;45.02;102065.08;110428;1260;19541;-54
2022/08/10 10:25:10;;;;;;;;;12.00;10.33;;;;;24.00;45.26;102063.61;110368;1261;22486;-52
2022/08/10 10:27:39;;;;;;;;;10.00;10.00;;;;;23.98;45.54;102063.30;110719;1258;18804;-51
2022/08/10 10:30:06;;;;;;;;;7.50;7.50;;;;;24.22;45.73;102060.11;110550;1259;19627;-51
2022/08/10 10:32:34;;;;;;;;;10.67;10.00;;;;;24.31;45.49;102060.06;110454;1260;18741;-50
2022/08/10 10:35:01;;;;;;;;;9.00;8.00;;;;;24.39;45.46;102058.67;110449;1260;18957;-51
2022/08/10 10:37:29;;;;;;;;;8.50;7.50;;;;;24.48;45.20;102056.95;110440;1258;19522;-51
2022/08/10 10:39:56;;;;;;;;;7.67;7.00;;;;;24.50;45.29;102047.79;110353;1260;18612;-50
2022/08/10 10:42:24;;;;;;;;;6.00;6.00;;;;;24.35;44.64;102049.56;110499;1259;18738;-50
2022/08/10 10:44:51;;;;;;;;;4.00;4.00;;;;;24.34;44.14;102047.72;110559;1258;19691;-50
2022/08/10 10:47:19;;;;;;;;;6.67;6.67;;;;;24.37;43.84;102044.28;110491;1258;18524;-50
2022/08/10 10:49:46;;;;;;;;;7.00;6.00;;;;;24.43;43.80;102045.92;110334;1258;18754;-50
2022/08/10 10:52:13;;;;;;;;;7.00;6.50;;;;;24.53;43.62;102040.11;110265;1260;19694;-52
2022/08/10 10:54:41;;;;;;;;;8.33;7.33;;;;;24.56;43.65;102045.77;110632;1258;18409;-52
2022/08/10 10:57:08;;;;;;;;;7.00;7.00;;;;;24.41;43.56;102050.59;110526;1259;19786;-49
2022/08/10 10:59:35;;;;;;;;;4.33;4.33;;;;;24.25;43.41;102049.73;110774;1258;19558;-52
2022/08/10 11:02:03;;;;;;;;;6.00;6.00;;;;;24.22;43.22;102047.30;110708;1258;22078;-51
2022/08/10 11:04:31;;;;;;;;;7.67;5.67;;;;;24.21;43.21;102046.86;110276;1261;18725;-51
2022/08/10 11:06:58;;;;;;;;;4.00;3.33;;;;;24.25;43.14;102045.36;110434;1261;19774;-49
2022/08/10 11:09:26;;;;;;;;;7.00;6.00;;;;;24.34;42.91;102046.77;110373;1261;18404;-50
2022/08/10 11:11:53;;;;;;;;;6.33;5.67;;;;;24.37;42.57;102041.15;110340;1259;18643;-51